createdAt,value
2022-08-03T00:00:42.550Z,-11380.75
2022-08-03T00:03:49.242Z,-11381.59
2022-08-03T00:06:56.915Z,-11357.50
2022-08-03T00:10:03.218Z,-11343.97
2022-08-03T00:13:10.024Z,-11333.56
2022-08-03T00:16:16.762Z,-11326.50
2022-08-03T00:19:23.400Z,-11316.94
2022-08-03T00:22:31.297Z,-11323.97
2022-08-03T00:25:38.422Z,-11337.78
2022-08-03T00:28:44.812Z,-11329.75
2022-08-03T00:31:59.172Z,-11332.97
2022-08-03T00:35:09.160Z,-11330.59
2022-08-03T00:38:18.859Z,-11323.69
2022-08-03T00:41:25.334Z,-11327.06
2022-08-03T00:44:32.379Z,-11331.28
2022-08-03T00:47:38.711Z,-11339.75
2022-08-03T00:50:45.108Z,-11339.31
2022-08-03T00:53:52.965Z,-11330.72
2022-08-03T00:57:00.574Z,-11339.75
2022-08-03T01:00:11.398Z,-11317.22
2022-08-03T01:03:18.136Z,-11311.28
2022-08-03T01:06:32.378Z,-11321.44
2022-08-03T01:10:01.155Z,-11334.09
2022-08-03T01:14:01.601Z,-11323.13
2022-08-03T01:16:58.416Z,-11314.69
2022-08-03T01:20:08.889Z,-11332.97
2022-08-03T01:23:45.776Z,-11354.81
2022-08-03T01:27:06.562Z,-11355.09
2022-08-03T01:30:14.911Z,-11356.66
2022-08-03T01:33:25.681Z,-11345.25
2022-08-03T01:36:36.683Z,-11327.63
2022-08-03T01:39:44.620Z,-11311.56
2022-08-03T01:42:53.137Z,-11318.91
2022-08-03T01:46:01.817Z,-11336.50
2022-08-03T01:49:12.056Z,-11336.66
2022-08-03T01:52:21.002Z,-11317.50
2022-08-03T01:55:28.900Z,-11302.56
2022-08-03T01:58:38.077Z,-11305.38
2022-08-03T02:02:15.547Z,-11304.81
2022-08-03T02:05:16.204Z,-11313.28
2022-08-03T02:08:25.619Z,-11307.63
2022-08-03T02:11:34.030Z,-11319.75
2022-08-03T02:14:42.561Z,-11330.03
2022-08-03T02:17:52.938Z,-11325.94
2022-08-03T02:21:00.469Z,-11333.13
2022-08-03T02:24:10.454Z,-11339.87
2022-08-03T02:27:22.225Z,-11332.28
2022-08-03T02:30:37.261Z,-11318.91
2022-08-03T02:33:50.542Z,-11323.97
2022-08-03T02:37:01.665Z,-11321.28
2022-08-03T02:40:11.531Z,-11300.31
2022-08-03T02:43:21.939Z,-11286.50
2022-08-03T02:46:34.472Z,-11290.59
2022-08-03T02:49:50.915Z,-11293.00
2022-08-03T02:52:59.974Z,-11292.16
2022-08-03T02:56:08.802Z,-11300.03
2022-08-03T02:59:17.708Z,-11291.72
2022-08-03T03:02:25.542Z,-11307.34
2022-08-03T03:05:55.277Z,-11290.75
2022-08-03T03:09:03.003Z,-11308.63
2022-08-03T03:12:11.317Z,-11315.25
2022-08-03T03:15:17.745Z,-11316.66
2022-08-03T03:18:25.479Z,-11318.34
2022-08-03T03:21:34.885Z,-11321.44
2022-08-03T03:24:43.336Z,-11329.88
2022-08-03T03:27:50.916Z,-11324.25
2022-08-03T03:30:58.015Z,-11332.41
2022-08-03T03:34:05.314Z,-11323.41
2022-08-03T03:37:14.820Z,-11319.59
2022-08-03T03:40:21.641Z,-11322.00
2022-08-03T03:43:29.559Z,-11317.22
2022-08-03T03:46:36.105Z,-11309.59
2022-08-03T03:49:43.058Z,-11287.63
2022-08-03T03:52:54.308Z,-11285.41
2022-08-03T03:56:02.875Z,-11302.00
2022-08-03T03:59:09.619Z,-11303.56
2022-08-03T04:02:16.908Z,-11309.75
2022-08-03T04:05:44.260Z,-11322.97
2022-08-03T04:09:13.559Z,-11317.22
2022-08-03T04:12:24.435Z,-11329.31
2022-08-03T04:15:34.727Z,-11333.69
2022-08-03T04:18:43.507Z,-11331.00
2022-08-03T04:21:53.238Z,-11327.22
2022-08-03T04:25:10.650Z,-11332.41
2022-08-03T04:28:29.391Z,-11351.84
2022-08-03T04:31:40.055Z,-11359.75
2022-08-03T04:34:46.632Z,-11362.00
2022-08-03T04:37:55.505Z,-11380.59
2022-08-03T04:41:03.467Z,-11383.97
2022-08-03T04:44:11.708Z,-11367.50
2022-08-03T04:47:18.576Z,-11374.25
2022-08-03T04:50:28.422Z,-11376.50
2022-08-03T04:53:35.202Z,-11401.03
2022-08-03T04:56:46.735Z,-11416.09
2022-08-03T05:00:02.498Z,-11405.69
2022-08-03T05:03:20.394Z,-11418.66
2022-08-03T05:06:31.172Z,-11427.66
2022-08-03T05:09:52.453Z,-11419.22
2022-08-03T05:13:05.532Z,-11423.16
2022-08-03T05:16:12.217Z,-11426.81
2022-08-03T05:19:20.753Z,-11440.50
2022-08-03T05:22:27.406Z,-11439.22
2022-08-03T05:25:39.969Z,-11440.34
2022-08-03T05:28:57.549Z,-11445.56
2022-08-03T05:32:08.282Z,-11446.84
2022-08-03T05:35:55.700Z,-11462.50
2022-08-03T05:38:43.818Z,-11474.34
2022-08-03T05:41:53.021Z,-11473.91
2022-08-03T05:45:13.079Z,-11483.22
2022-08-03T05:48:19.779Z,-11480.13
2022-08-03T05:51:29.102Z,-11479.28
2022-08-03T05:54:56.170Z,-11466.16
2022-08-03T05:58:04.232Z,-11469.81
2022-08-03T06:01:12.836Z,-11490.41
2022-08-03T06:04:22.376Z,-11498.31
2022-08-03T06:07:33.748Z,-11509.03
2022-08-03T06:10:42.522Z,-11520.31
2022-08-03T06:13:49.019Z,-11511.44
2022-08-03T06:17:10.874Z,-11518.78
2022-08-03T06:20:20.562Z,-11510.72
2022-08-03T06:23:54.791Z,-11512.00
2022-08-03T06:26:55.526Z,-11520.88
2022-08-03T06:30:02.196Z,-11521.88
2022-08-03T06:33:11.470Z,-11538.53
2022-08-03T06:36:18.156Z,-11533.72
2022-08-03T06:39:28.462Z,-11545.59
2022-08-03T06:42:34.748Z,-11551.22
2022-08-03T06:45:41.429Z,-11568.03
2022-08-03T06:48:50.980Z,-11557.72
2022-08-03T06:52:04.568Z,-11566.31
2022-08-03T06:55:13.127Z,-11570.97
2022-08-03T06:58:19.547Z,-11567.59
2022-08-03T07:01:28.987Z,-11565.19
2022-08-03T07:04:37.128Z,-11588.06
2022-08-03T07:07:47.017Z,-11590.59
2022-08-03T07:10:56.637Z,-11588.22
2022-08-03T07:14:07.857Z,-11594.56
2022-08-03T07:17:16.991Z,-11592.16
2022-08-03T07:20:32.521Z,-11591.59
2022-08-03T07:23:39.199Z,-11593.28
2022-08-03T07:26:48.448Z,-11592.72
2022-08-03T07:29:58.274Z,-11626.47
2022-08-03T07:33:07.733Z,-11625.19
2022-08-03T07:36:16.120Z,-11619.25
2022-08-03T07:39:23.864Z,-11639.03
2022-08-03T07:42:31.555Z,-11630.84
2022-08-03T07:45:38.340Z,-11637.19
2022-08-03T07:48:44.943Z,-11637.47
2022-08-03T07:52:08.350Z,-11635.63
2022-08-03T07:55:15.010Z,-11645.25
2022-08-03T07:58:24.338Z,-11649.06
2022-08-03T08:01:36.843Z,-11646.66
2022-08-03T08:04:43.436Z,-11662.59
2022-08-03T08:07:51.895Z,-11659.06
2022-08-03T08:10:59.212Z,-11661.75
2022-08-03T08:14:05.637Z,-11668.25
2022-08-03T08:17:12.380Z,-11675.47
2022-08-03T08:20:28.056Z,-11683.66
2022-08-03T08:23:43.434Z,-11670.38
2022-08-03T08:26:50.988Z,-11684.50
2022-08-03T08:30:02.531Z,-11687.88
2022-08-03T08:33:22.599Z,-11704.28
2022-08-03T08:36:30.128Z,-11707.66
2022-08-03T08:39:38.039Z,-11695.66
2022-08-03T08:42:58.014Z,-11718.41
2022-08-03T08:46:05.696Z,-11704.84
2022-08-03T08:49:14.107Z,-11697.06
2022-08-03T08:52:25.489Z,-11702.03
2022-08-03T08:55:58.566Z,-11697.22
2022-08-03T08:59:06.709Z,-11704.00
2022-08-03T09:02:13.670Z,-11729.13
2022-08-03T09:05:31.649Z,-11729.56
2022-08-03T09:08:49.906Z,-11726.03
2022-08-03T09:12:13.756Z,-11720.09
2022-08-03T09:16:00.707Z,-11715.28
2022-08-03T09:19:14.404Z,-11704.13
2022-08-03T09:22:21.154Z,-11687.03
2022-08-03T09:25:35.016Z,-11703.00
2022-08-03T09:28:59.823Z,-11688.88
2022-08-03T09:32:09.628Z,-11710.63
2022-08-03T09:35:27.909Z,-11716.72
2022-08-03T09:38:42.747Z,-11696.94
2022-08-03T09:41:50.522Z,-11716.28
2022-08-03T09:44:59.296Z,-11723.63
2022-08-03T09:48:23.474Z,-11738.88
2022-08-03T09:51:33.219Z,-11738.31
2022-08-03T09:54:56.958Z,-11743.25
2022-08-03T09:58:09.647Z,-11754.56
2022-08-03T10:01:25.362Z,-11746.94
2022-08-03T10:04:31.977Z,-11766.72
2022-08-03T10:07:46.089Z,-11779.44
2022-08-03T10:10:58.806Z,-11782.25
2022-08-03T10:14:06.821Z,-11735.50
2022-08-03T10:17:15.315Z,-11724.34
2022-08-03T10:20:21.817Z,-11726.88
2022-08-03T10:23:33.157Z,-11715.16
2022-08-03T10:26:49.968Z,-11696.66
2022-08-03T10:30:03.114Z,-11708.09
2022-08-03T10:33:51.834Z,-11693.97
2022-08-03T10:36:47.125Z,-11705.53
2022-08-03T10:39:58.075Z,-11691.97
2022-08-03T10:43:09.318Z,-11694.25
2022-08-03T10:46:19.847Z,-11706.25
2022-08-03T10:49:34.587Z,-11687.88
2022-08-03T10:52:56.330Z,-11691.97
2022-08-03T10:56:28.617Z,-11678.56
2022-08-03T11:00:06.393Z,-11693.53
2022-08-03T11:03:15.332Z,-11692.97
2022-08-03T11:06:24.975Z,-11699.63
2022-08-03T11:09:43.152Z,-11681.38
2022-08-03T11:13:09.198Z,-11679.00
2022-08-03T11:16:23.483Z,-11683.50
2022-08-03T11:19:57.422Z,-11687.59
2022-08-03T11:23:04.595Z,-11693.41
2022-08-03T11:26:15.821Z,-11694.66
2022-08-03T11:29:31.841Z,-11693.53
2022-08-03T11:33:00.009Z,-11703.28
2022-08-03T11:36:06.865Z,-11695.50
2022-08-03T11:39:17.377Z,-11735.63
2022-08-03T11:42:45.239Z,-11714.44
2022-08-03T11:46:00.699Z,-11710.63
2022-08-03T11:49:10.941Z,-11725.47
2022-08-03T11:52:27.135Z,-11707.66
2022-08-03T11:55:37.191Z,-11698.75
2022-08-03T11:58:58.163Z,-11690.28
2022-08-03T12:02:17.904Z,-11672.63
2022-08-03T12:05:34.972Z,-11670.94
2022-08-03T12:08:42.370Z,-11666.00
2022-08-03T12:11:50.869Z,-11668.53
2022-08-03T12:15:08.442Z,-11649.47
2022-08-03T12:18:18.336Z,-11653.00
2022-08-03T12:21:25.359Z,-11653.28
2022-08-03T12:24:42.665Z,-11647.06
2022-08-03T12:27:49.016Z,-11636.19
2022-08-03T12:30:55.468Z,-11635.06
2022-08-03T12:34:05.262Z,-11635.63
2022-08-03T12:37:21.838Z,-11632.25
2022-08-03T12:40:28.754Z,-11630.84
2022-08-03T12:43:39.540Z,-11629.72
2022-08-03T12:46:47.730Z,-11636.63
2022-08-03T12:49:56.928Z,-11632.25
2022-08-03T12:53:07.920Z,-11634.22
2022-08-03T12:56:15.422Z,-11634.50
2022-08-03T12:59:32.383Z,-11631.13
2022-08-03T13:03:41.939Z,-11628.56
2022-08-03T13:07:03.120Z,-11630.00
2022-08-03T13:10:10.891Z,-11626.31
2022-08-03T13:13:20.852Z,-11626.59
2022-08-03T13:16:27.489Z,-11633.53
2022-08-03T13:19:34.002Z,-11634.50
2022-08-03T13:22:43.002Z,-11638.47
2022-08-03T13:25:55.871Z,-11635.50
2022-08-03T13:29:02.491Z,-11635.78
2022-08-03T13:32:09.379Z,-11619.81
2022-08-03T13:35:16.524Z,-11612.91
2022-08-03T13:38:27.174Z,-11600.91
2022-08-03T13:41:33.848Z,-11601.91
2022-08-03T13:44:41.243Z,-11598.94
2022-08-03T13:47:47.638Z,-11586.78
2022-08-03T13:50:53.930Z,-11587.94
2022-08-03T13:54:01.788Z,-11590.47
2022-08-03T13:58:03.079Z,-11580.56
2022-08-03T14:00:34.613Z,-11589.91
2022-08-03T14:03:40.861Z,-11592.72
2022-08-03T14:06:47.347Z,-11591.59
2022-08-03T14:09:55.158Z,-11591.88
2022-08-03T14:13:02.001Z,-11587.06
2022-08-03T14:16:09.884Z,-11597.53
2022-08-03T14:19:17.156Z,-11589.91
2022-08-03T14:22:31.264Z,-11596.09
2022-08-03T14:25:43.518Z,-11584.53
2022-08-03T14:28:56.896Z,-11592.44
2022-08-03T14:32:09.440Z,-11576.91
2022-08-03T14:35:16.795Z,-11575.34
2022-08-03T14:38:23.518Z,-11580.28
2022-08-03T14:41:31.144Z,-11573.25
2022-08-03T14:44:37.557Z,-11581.84
2022-08-03T14:50:27.989Z,-11584.09
2022-08-03T14:51:10.418Z,-11587.94
2022-08-03T14:54:16.847Z,-11582.84
2022-08-03T14:57:26.420Z,-11588.63
2022-08-03T15:00:32.916Z,-11592.28
2022-08-03T15:03:39.148Z,-11588.22
2022-08-03T15:06:45.666Z,-11595.53
2022-08-03T15:09:57.351Z,-11592.44
2022-08-03T15:13:04.979Z,-11593.13
2022-08-03T15:16:11.603Z,-11597.38
2022-08-03T15:20:02.117Z,-11581.44
2022-08-03T15:22:44.069Z,-11571.69
2022-08-03T15:26:29.035Z,-11575.22
2022-08-03T15:30:08.221Z,-11577.91
2022-08-03T15:32:44.491Z,-11571.84
2022-08-03T15:35:50.742Z,-11573.53
2022-08-03T15:38:57.231Z,-11576.34
2022-08-03T15:42:03.521Z,-11571.41
2022-08-03T15:45:12.115Z,-11572.41
2022-08-03T15:48:20.287Z,-11572.13
2022-08-03T15:51:32.891Z,-11570.28
2022-08-03T15:54:39.471Z,-11575.06
2022-08-03T15:59:11.422Z,-11576.91
2022-08-03T16:01:16.453Z,-11576.47
2022-08-03T16:04:25.627Z,-11577.75
2022-08-03T16:07:59.069Z,-11577.47
2022-08-03T16:11:10.449Z,-11574.50
2022-08-03T16:14:34.662Z,-11575.78
2022-08-03T16:17:44.750Z,-11574.78
2022-08-03T16:20:51.116Z,-11577.63
2022-08-03T16:23:57.293Z,-11578.75
2022-08-03T16:27:03.335Z,-11582.56
2022-08-03T16:30:12.135Z,-11581.00
2022-08-03T16:33:20.026Z,-11576.91
2022-08-03T16:36:26.464Z,-11578.31
2022-08-03T16:39:41.450Z,-11576.91
2022-08-03T16:42:48.155Z,-11574.66
2022-08-03T16:45:55.038Z,-11572.81
2022-08-03T16:49:02.809Z,-11567.59
2022-08-03T16:52:09.286Z,-11558.84
2022-08-03T16:55:48.750Z,-11557.44
2022-08-03T16:58:45.612Z,-11558.00
2022-08-03T17:01:56.653Z,-11559.41
2022-08-03T17:05:22.468Z,-11558.84
2022-08-03T17:08:32.458Z,-11556.44
2022-08-03T17:11:44.126Z,-11555.75
2022-08-03T17:14:53.665Z,-11554.47
2022-08-03T17:18:05.719Z,-11554.06
2022-08-03T17:21:16.908Z,-11547.28
2022-08-03T17:24:35.038Z,-11543.59
2022-08-03T17:28:48.359Z,-11542.47
2022-08-03T17:31:23.382Z,-11541.50
2022-08-03T17:34:39.660Z,-11535.56
2022-08-03T17:37:57.903Z,-11534.56
2022-08-03T17:41:10.619Z,-11527.25
2022-08-03T17:44:32.062Z,-11532.47
2022-08-03T17:47:44.200Z,-11531.75
2022-08-03T17:50:55.087Z,-11522.44
2022-08-03T17:54:18.290Z,-11524.28
2022-08-03T17:57:30.573Z,-11521.03
2022-08-03T18:02:02.107Z,-11524.69
2022-08-03T18:04:55.445Z,-11524.41
2022-08-03T18:08:09.468Z,-11520.59
2022-08-03T18:11:22.960Z,-11519.34
2022-08-03T18:14:38.957Z,-11518.06
2022-08-03T18:17:55.200Z,-11515.94
2022-08-03T18:21:17.033Z,-11512.84
2022-08-03T18:24:26.213Z,-11515.94
2022-08-03T18:27:46.012Z,-11513.28
2022-08-03T18:30:55.248Z,-11509.75
2022-08-03T18:34:17.950Z,-11507.63
2022-08-03T18:37:31.484Z,-11507.34
2022-08-03T18:40:57.770Z,-11504.09
2022-08-03T18:44:09.552Z,-11501.41
2022-08-03T18:47:54.312Z,-11498.44
2022-08-03T18:51:07.120Z,-11496.91
2022-08-03T18:54:50.987Z,-11497.88
2022-08-03T18:57:50.184Z,-11492.25
2022-08-03T19:01:15.454Z,-11490.56
2022-08-03T19:04:37.383Z,-11490.56
2022-08-03T19:07:58.397Z,-11496.91
2022-08-03T19:11:09.724Z,-11494.22
2022-08-03T19:14:18.976Z,-11492.41
2022-08-03T19:17:29.292Z,-11488.31
2022-08-03T19:20:36.100Z,-11488.72
2022-08-03T19:23:45.790Z,-11490.56
2022-08-03T19:26:56.005Z,-11490.13
2022-08-03T19:30:08.209Z,-11488.88
2022-08-03T19:33:23.331Z,-11488.59
2022-08-03T19:36:29.700Z,-11479.56
2022-08-03T19:39:36.395Z,-11479.97
2022-08-03T19:42:48.122Z,-11476.19
2022-08-03T19:46:06.234Z,-11481.81
2022-08-03T19:49:17.271Z,-11482.38
2022-08-03T19:52:24.473Z,-11480.13
2022-08-03T19:55:41.035Z,-11478.72
2022-08-03T19:58:56.931Z,-11476.75
2022-08-03T20:02:05.827Z,-11480.13
2022-08-03T20:05:15.296Z,-11471.09
2022-08-03T20:08:22.212Z,-11447.13
2022-08-03T20:11:29.030Z,-11445.72
2022-08-03T20:14:35.323Z,-11449.53
2022-08-03T20:17:55.366Z,-11464.03
2022-08-03T20:21:15.346Z,-11466.31
2022-08-03T20:24:28.112Z,-11460.81
2022-08-03T20:28:06.677Z,-11462.50
2022-08-03T20:31:11.984Z,-11447.13
2022-08-03T20:34:18.699Z,-11451.22
2022-08-03T20:37:26.286Z,-11453.91
2022-08-03T20:40:32.412Z,-11455.03
2022-08-03T20:43:38.741Z,-11454.47
2022-08-03T20:46:53.378Z,-11435.56
2022-08-03T20:50:07.569Z,-11437.25
2022-08-03T20:53:16.133Z,-11442.63
2022-08-03T20:56:43.025Z,-11458.41
2022-08-03T20:59:55.906Z,-11454.75
2022-08-03T21:03:02.162Z,-11438.25
2022-08-03T21:06:11.544Z,-11435.41
2022-08-03T21:09:40.070Z,-11434.44
2022-08-03T21:12:53.127Z,-11435.41
2022-08-03T21:16:12.775Z,-11454.03
2022-08-03T21:19:23.404Z,-11461.66
2022-08-03T21:22:34.228Z,-11457.84
2022-08-03T21:25:44.676Z,-11456.56
2022-08-03T21:28:53.460Z,-11456.84
2022-08-03T21:32:02.195Z,-11451.91
2022-08-03T21:35:11.701Z,-11445.72
2022-08-03T21:38:20.791Z,-11453.63
2022-08-03T21:41:39.199Z,-11461.50
2022-08-03T21:44:45.441Z,-11456.28
2022-08-03T21:47:51.492Z,-11458.41
2022-08-03T21:50:58.110Z,-11450.50
2022-08-03T21:54:05.044Z,-11452.75
2022-08-03T21:57:19.120Z,-11452.47
2022-08-03T22:00:25.898Z,-11457.41
2022-08-03T22:03:32.661Z,-11458.53
2022-08-03T22:06:59.145Z,-11454.47
2022-08-03T22:10:07.761Z,-11454.03
2022-08-03T22:13:20.625Z,-11452.75
2022-08-03T22:16:42.588Z,-11452.34
2022-08-03T22:19:49.740Z,-11453.19
2022-08-03T22:22:57.885Z,-11450.78
2022-08-03T22:26:05.647Z,-11449.38
2022-08-03T22:29:13.403Z,-11436.56
2022-08-03T22:32:20.081Z,-11439.94
2022-08-03T22:35:28.548Z,-11439.50
2022-08-03T22:38:35.168Z,-11442.19
2022-08-03T22:41:41.389Z,-11434.56
2022-08-03T22:44:51.198Z,-11422.59
2022-08-03T22:47:59.133Z,-11426.97
2022-08-03T22:51:06.631Z,-11422.31
2022-08-03T22:54:13.448Z,-11414.41
2022-08-03T22:57:23.007Z,-11420.34
2022-08-03T23:00:30.734Z,-11423.16
2022-08-03T23:04:00.986Z,-11412.44
2022-08-03T23:07:09.389Z,-11407.78
2022-08-03T23:10:16.799Z,-11421.19
2022-08-03T23:13:26.409Z,-11435.13
2022-08-03T23:16:39.477Z,-11437.69
2022-08-03T23:19:46.309Z,-11441.06
2022-08-03T23:22:52.996Z,-11439.50
2022-08-03T23:26:00.619Z,-11431.63
2022-08-03T23:29:06.587Z,-11431.75
2022-08-03T23:32:14.694Z,-11429.09
2022-08-03T23:36:28.529Z,-11426.25
2022-08-03T23:39:05.480Z,-11420.06
2022-08-03T23:42:12.628Z,-11416.94
2022-08-03T23:45:20.651Z,-11429.94
2022-08-03T23:48:29.204Z,-11429.38
2022-08-03T23:51:43.660Z,-11424.28
2022-08-03T23:55:01.279Z,-11433.31
2022-08-03T23:58:20.038Z,-11434.28
